Time,TemperatureF,DewpointF,PressureIn,WindDirection,WindDirectionDegrees,WindSpeedMPH,WindSpeedGustMPH,Humidity,HourlyPrecipIn,Conditions,Clouds,dailyrainin,SolarRadiationWatts/m^2,SoftwareType,DateUTC
2013-07-14 00:11:00,71.0,50.0,-100.00,NW,324,5.0,13.0,48,0.00,,,0.01,0.000000,,2013-07-14 06:11:00,
2013-07-14 00:22:00,71.0,50.0,-100.00,NW,324,5.0,13.0,48,0.00,,,0.01,0.000000,,2013-07-14 06:22:00,
2013-07-14 00:32:00,71.0,50.0,-100.00,NW,324,5.0,13.0,48,0.00,,,0.01,0.000000,,2013-07-14 06:32:00,
2013-07-14 00:42:00,71.0,50.0,-100.00,NW,324,5.0,13.0,48,0.00,,,0.01,0.000000,,2013-07-14 06:42:00,
2013-07-14 00:51:00,68.0,50.0,-100.00,WSW,256,6.0,10.0,53,0.00,,,0.00,0.000000,,2013-07-14 06:51:00,
2013-07-14 01:12:00,68.0,50.0,-100.00,WSW,256,6.0,10.0,53,0.00,,,0.00,0.000000,,2013-07-14 07:12:00,
2013-07-14 01:22:00,68.0,50.0,-100.00,WSW,256,6.0,10.0,53,0.00,,,0.00,0.000000,,2013-07-14 07:22:00,
2013-07-14 01:33:00,68.0,50.0,-100.00,WSW,256,6.0,10.0,53,0.00,,,0.00,0.000000,,2013-07-14 07:33:00,
2013-07-14 01:43:00,68.0,50.0,-100.00,WSW,256,6.0,10.0,53,0.00,,,0.00,0.000000,,2013-07-14 07:43:00,
2013-07-14 01:51:00,67.0,52.0,-100.00,SE,125,3.0,16.0,58,0.00,,,0.00,0.000000,,2013-07-14 07:51:00,
2013-07-14 02:22:00,67.0,52.0,-100.00,SE,125,3.0,16.0,58,0.00,,,0.00,0.000000,,2013-07-14 08:22:00,
2013-07-14 02:32:00,67.0,52.0,-100.00,SE,125,3.0,16.0,58,0.00,,,0.00,0.000000,,2013-07-14 08:32:00,
2013-07-14 02:42:00,67.0,52.0,-100.00,SE,125,3.0,16.0,58,0.00,,,0.00,0.000000,,2013-07-14 08:42:00,
2013-07-14 02:51:00,69.0,51.0,-100.00,North,8,4.0,8.0,53,0.00,,,0.00,0.000000,,2013-07-14 08:51:00,
2013-07-14 03:11:00,69.0,51.0,-100.00,North,8,4.0,8.0,53,0.00,,,0.00,0.000000,,2013-07-14 09:11:00,
2013-07-14 03:22:00,69.0,51.0,-100.00,North,8,4.0,8.0,53,0.00,,,0.00,0.000000,,2013-07-14 09:22:00,
2013-07-14 03:51:00,68.0,51.0,-100.00,WNW,287,9.0,14.0,54,0.00,,,0.00,0.000000,,2013-07-14 09:51:00,
2013-07-14 04:11:00,68.0,51.0,-100.00,WNW,287,9.0,14.0,54,0.00,,,0.00,0.000000,,2013-07-14 10:11:00,
2013-07-14 04:22:00,68.0,51.0,-100.00,WNW,287,9.0,14.0,54,0.00,,,0.00,0.000000,,2013-07-14 10:22:00,
2013-07-14 04:32:00,68.0,51.0,-100.00,WNW,287,9.0,14.0,54,0.00,,,0.00,0.000000,,2013-07-14 10:32:00,
2013-07-14 04:42:00,68.0,51.0,-100.00,WNW,287,9.0,14.0,54,0.00,,,0.00,0.000000,,2013-07-14 10:42:00,
2013-07-14 04:51:00,65.0,52.0,-100.00,ESE,113,2.0,17.0,63,0.00,,,0.00,0.000000,,2013-07-14 10:51:00,
2013-07-14 05:11:00,65.0,52.0,-100.00,ESE,113,2.0,17.0,63,0.00,,,0.00,0.000000,,2013-07-14 11:11:00,
2013-07-14 05:22:00,65.0,52.0,-100.00,ESE,113,2.0,17.0,63,0.00,,,0.00,0.000000,,2013-07-14 11:22:00,
2013-07-14 05:32:00,65.0,52.0,-100.00,ESE,113,2.0,17.0,63,0.00,,,0.00,0.000000,,2013-07-14 11:32:00,
2013-07-14 05:43:00,65.0,52.0,-100.00,ESE,113,2.0,17.0,63,0.00,,,0.00,0.000000,,2013-07-14 11:43:00,
2013-07-14 05:51:00,64.0,54.0,-100.00,South,188,3.0,8.0,70,0.00,,,0.00,0.000000,,2013-07-14 11:51:00,
2013-07-14 06:11:00,64.0,54.0,-100.00,South,188,3.0,8.0,70,0.00,,,0.00,0.000000,,2013-07-14 12:11:00,
2013-07-14 06:22:00,64.0,54.0,-100.00,South,188,3.0,8.0,70,0.00,,,0.00,0.000000,,2013-07-14 12:22:00,
2013-07-14 06:33:00,64.0,54.0,-100.00,South,188,3.0,8.0,70,0.00,,,0.00,0.000000,,2013-07-14 12:33:00,
2013-07-14 06:43:00,64.0,54.0,-100.00,South,188,3.0,8.0,70,0.00,,,0.00,0.000000,,2013-07-14 12:43:00,
2013-07-14 06:51:00,61.0,57.0,-100.00,SSE,148,7.0,11.0,86,0.01,,,0.01,8.000000,,2013-07-14 12:51:00,
2013-07-14 07:22:00,61.0,57.0,-100.00,SSE,148,7.0,11.0,86,0.01,,,0.01,8.000000,,2013-07-14 13:22:00,
2013-07-14 07:32:00,61.0,57.0,-100.00,SSE,148,7.0,11.0,86,0.01,,,0.01,8.000000,,2013-07-14 13:32:00,
2013-07-14 07:42:00,61.0,57.0,-100.00,SSE,148,7.0,11.0,86,0.01,,,0.01,8.000000,,2013-07-14 13:42:00,
2013-07-14 07:51:00,62.0,57.0,-100.00,North,3,4.0,9.0,83,0.00,,,0.01,96.000000,,2013-07-14 13:51:00,
2013-07-14 08:11:00,62.0,57.0,-100.00,North,3,4.0,9.0,83,0.00,,,0.01,96.000000,,2013-07-14 14:11:00,
2013-07-14 08:23:00,62.0,57.0,-100.00,North,3,4.0,9.0,83,0.00,,,0.01,96.000000,,2013-07-14 14:23:00,
2013-07-14 08:33:00,62.0,57.0,-100.00,North,3,4.0,9.0,83,0.00,,,0.01,96.000000,,2013-07-14 14:33:00,
2013-07-14 08:43:00,62.0,57.0,-100.00,North,3,4.0,9.0,83,0.00,,,0.01,96.000000,,2013-07-14 14:43:00,
2013-07-14 08:51:00,64.0,57.0,-100.00,NNW,343,5.0,12.0,79,0.00,,,0.01,144.000000,,2013-07-14 14:51:00,
2013-07-14 09:12:00,64.0,57.0,-100.00,NNW,343,5.0,12.0,79,0.00,,,0.01,144.000000,,2013-07-14 15:12:00,
2013-07-14 09:22:00,64.0,57.0,-100.00,NNW,343,5.0,12.0,79,0.00,,,0.01,144.000000,,2013-07-14 15:22:00,
2013-07-14 09:32:00,64.0,57.0,-100.00,NNW,343,5.0,12.0,79,0.00,,,0.01,144.000000,,2013-07-14 15:32:00,
2013-07-14 09:42:00,64.0,57.0,-100.00,NNW,343,5.0,12.0,79,0.00,,,0.01,144.000000,,2013-07-14 15:42:00,
2013-07-14 09:51:00,71.0,57.0,-100.00,East,89,4.0,7.0,61,0.00,,,0.01,523.000000,,2013-07-14 15:51:00,
2013-07-14 10:11:00,71.0,57.0,-100.00,East,89,4.0,7.0,61,0.00,,,0.01,523.000000,,2013-07-14 16:11:00,
2013-07-14 10:22:00,71.0,57.0,-100.00,East,89,4.0,7.0,61,0.00,,,0.01,523.000000,,2013-07-14 16:22:00,
2013-07-14 10:32:00,71.0,57.0,-100.00,East,89,4.0,7.0,61,0.00,,,0.01,523.000000,,2013-07-14 16:32:00,
2013-07-14 10:43:00,71.0,57.0,-100.00,East,89,4.0,7.0,61,0.00,,,0.01,523.000000,,2013-07-14 16:43:00,
2013-07-14 10:51:00,75.0,56.0,-100.00,East,88,5.0,10.0,51,0.00,,,0.01,877.000000,,2013-07-14 16:51:00,
2013-07-14 11:11:00,75.0,56.0,-100.00,East,88,5.0,10.0,51,0.00,,,0.01,877.000000,,2013-07-14 17:11:00,
2013-07-14 11:22:00,75.0,56.0,-100.00,East,88,5.0,10.0,51,0.00,,,0.01,877.000000,,2013-07-14 17:22:00,
2013-07-14 11:32:00,75.0,56.0,-100.00,East,88,5.0,10.0,51,0.00,,,0.01,877.000000,,2013-07-14 17:32:00,
2013-07-14 11:43:00,75.0,56.0,-100.00,East,88,5.0,10.0,51,0.00,,,0.01,877.000000,,2013-07-14 17:43:00,
2013-07-14 11:51:00,80.0,55.0,-100.00,East,79,4.0,10.0,42,0.00,,,0.01,1025.000000,,2013-07-14 17:51:00,
2013-07-14 12:11:00,80.0,55.0,-100.00,East,79,4.0,10.0,42,0.00,,,0.01,1025.000000,,2013-07-14 18:11:00,
2013-07-14 12:22:00,80.0,55.0,-100.00,East,79,4.0,10.0,42,0.00,,,0.01,1025.000000,,2013-07-14 18:22:00,
2013-07-14 12:32:00,80.0,55.0,-100.00,East,79,4.0,10.0,42,0.00,,,0.01,1025.000000,,2013-07-14 18:32:00,
2013-07-14 12:42:00,80.0,55.0,-100.00,East,79,4.0,10.0,42,0.00,,,0.01,1025.000000,,2013-07-14 18:42:00,
2013-07-14 12:51:00,84.0,50.0,-100.00,NNW,330,5.0,11.0,31,0.00,,,0.01,1134.000000,,2013-07-14 18:51:00,
2013-07-14 13:11:00,84.0,50.0,-100.00,NNW,330,5.0,11.0,31,0.00,,,0.01,1134.000000,,2013-07-14 19:11:00,
2013-07-14 13:22:00,84.0,50.0,-100.00,NNW,330,5.0,11.0,31,0.00,,,0.01,1134.000000,,2013-07-14 19:22:00,
2013-07-14 13:32:00,84.0,50.0,-100.00,NNW,330,5.0,11.0,31,0.00,,,0.01,1134.000000,,2013-07-14 19:32:00,
2013-07-14 13:43:00,84.0,50.0,-100.00,NNW,330,5.0,11.0,31,0.00,,,0.01,1134.000000,,2013-07-14 19:43:00,
2013-07-14 13:51:00,89.0,52.0,-100.00,SSE,159,3.0,10.0,28,0.00,,,0.01,1010.000000,,2013-07-14 19:51:00,
2013-07-14 14:11:00,89.0,52.0,-100.00,SSE,159,3.0,10.0,28,0.00,,,0.01,1010.000000,,2013-07-14 20:11:00,
2013-07-14 14:22:00,89.0,52.0,-100.00,SSE,159,3.0,10.0,28,0.00,,,0.01,1010.000000,,2013-07-14 20:22:00,
2013-07-14 14:32:00,89.0,52.0,-100.00,SSE,159,3.0,10.0,28,0.00,,,0.01,1010.000000,,2013-07-14 20:32:00,
2013-07-14 14:43:00,89.0,52.0,-100.00,SSE,159,3.0,10.0,28,0.00,,,0.01,1010.000000,,2013-07-14 20:43:00,
2013-07-14 14:51:00,88.0,48.0,-100.00,West,275,6.0,14.0,25,0.00,,,0.01,1058.000000,,2013-07-14 20:51:00,
2013-07-14 15:11:00,88.0,48.0,-100.00,West,275,6.0,14.0,25,0.00,,,0.01,1058.000000,,2013-07-14 21:11:00,
2013-07-14 15:22:00,88.0,48.0,-100.00,West,275,6.0,14.0,25,0.00,,,0.01,1058.000000,,2013-07-14 21:22:00,
2013-07-14 15:32:00,88.0,48.0,-100.00,West,275,6.0,14.0,25,0.00,,,0.01,1058.000000,,2013-07-14 21:32:00,
2013-07-14 15:43:00,88.0,48.0,-100.00,West,275,6.0,14.0,25,0.00,,,0.01,1058.000000,,2013-07-14 21:43:00,
2013-07-14 15:51:00,84.0,45.0,-100.00,NE,39,5.0,16.0,26,0.00,,,0.01,661.000000,,2013-07-14 21:51:00,
2013-07-14 16:11:00,84.0,45.0,-100.00,NE,39,5.0,16.0,26,0.00,,,0.01,661.000000,,2013-07-14 22:11:00,
2013-07-14 16:22:00,84.0,45.0,-100.00,NE,39,5.0,16.0,26,0.00,,,0.01,661.000000,,2013-07-14 22:22:00,
2013-07-14 16:32:00,84.0,45.0,-100.00,NE,39,5.0,16.0,26,0.00,,,0.01,661.000000,,2013-07-14 22:32:00,
2013-07-14 16:42:00,84.0,45.0,-100.00,NE,39,5.0,16.0,26,0.00,,,0.01,661.000000,,2013-07-14 22:42:00,
2013-07-14 17:11:00,72.0,48.0,-100.00,SW,218,19.0,38.0,43,0.15,,,0.16,55.000000,,2013-07-14 23:11:00,
2013-07-14 17:51:00,80.0,57.0,-100.00,SE,136,2.0,22.0,45,-99.99,,,0.16,503.000000,,2013-07-14 23:51:00,
2013-07-14 18:11:00,80.0,57.0,-100.00,SE,136,2.0,22.0,45,-99.99,,,0.16,503.000000,,2013-07-15 00:11:00,
2013-07-14 18:22:00,80.0,57.0,-100.00,SE,136,2.0,22.0,45,-99.99,,,0.16,503.000000,,2013-07-15 00:22:00,
2013-07-14 18:32:00,80.0,57.0,-100.00,SE,136,2.0,22.0,45,-99.99,,,0.16,503.000000,,2013-07-15 00:32:00,
2013-07-14 18:43:00,80.0,57.0,-100.00,SE,136,2.0,22.0,45,-99.99,,,0.16,503.000000,,2013-07-15 00:43:00,
2013-07-14 18:51:00,78.0,53.0,-100.00,SSE,167,7.0,13.0,42,0.00,,,0.16,537.000000,,2013-07-15 00:51:00,
2013-07-14 19:11:00,78.0,53.0,-100.00,SSE,167,7.0,13.0,42,0.00,,,0.16,537.000000,,2013-07-15 01:11:00,
2013-07-14 19:22:00,78.0,53.0,-100.00,SSE,167,7.0,13.0,42,0.00,,,0.16,537.000000,,2013-07-15 01:22:00,
2013-07-14 19:32:00,78.0,53.0,-100.00,SSE,167,7.0,13.0,42,0.00,,,0.16,537.000000,,2013-07-15 01:32:00,
2013-07-14 19:43:00,78.0,53.0,-100.00,SSE,167,7.0,13.0,42,0.00,,,0.16,537.000000,,2013-07-15 01:43:00,
2013-07-14 19:51:00,77.0,53.0,-100.00,East,100,4.0,9.0,44,0.00,,,0.16,194.000000,,2013-07-15 01:51:00,
2013-07-14 20:11:00,77.0,53.0,-100.00,East,100,4.0,9.0,44,0.00,,,0.16,194.000000,,2013-07-15 02:11:00,
2013-07-14 20:22:00,77.0,53.0,-100.00,East,100,4.0,9.0,44,0.00,,,0.16,194.000000,,2013-07-15 02:22:00,
2013-07-14 20:32:00,77.0,53.0,-100.00,East,100,4.0,9.0,44,0.00,,,0.16,194.000000,,2013-07-15 02:32:00,
2013-07-14 20:42:00,77.0,53.0,-100.00,East,100,4.0,9.0,44,0.00,,,0.16,194.000000,,2013-07-15 02:42:00,
2013-07-14 20:51:00,74.0,52.0,-100.00,SE,133,4.0,8.0,47,0.00,,,0.16,31.000000,,2013-07-15 02:51:00,
2013-07-14 21:11:00,74.0,52.0,-100.00,SE,133,4.0,8.0,47,0.00,,,0.16,31.000000,,2013-07-15 03:11:00,
2013-07-14 21:22:00,74.0,52.0,-100.00,SE,133,4.0,8.0,47,0.00,,,0.16,31.000000,,2013-07-15 03:22:00,
2013-07-14 21:32:00,74.0,52.0,-100.00,SE,133,4.0,8.0,47,0.00,,,0.16,31.000000,,2013-07-15 03:32:00,
2013-07-14 21:43:00,74.0,52.0,-100.00,SE,133,4.0,8.0,47,0.00,,,0.16,31.000000,,2013-07-15 03:43:00,
2013-07-14 21:51:00,72.0,52.0,-100.00,SW,227,1.0,10.0,50,0.00,,,0.16,0.000000,,2013-07-15 03:51:00,
2013-07-14 22:11:00,72.0,52.0,-100.00,SW,227,1.0,10.0,50,0.00,,,0.16,0.000000,,2013-07-15 04:11:00,
2013-07-14 22:22:00,72.0,52.0,-100.00,SW,227,1.0,10.0,50,0.00,,,0.16,0.000000,,2013-07-15 04:22:00,
2013-07-14 22:32:00,72.0,52.0,-100.00,SW,227,1.0,10.0,50,0.00,,,0.16,0.000000,,2013-07-15 04:32:00,
2013-07-14 22:42:00,72.0,52.0,-100.00,SW,227,1.0,10.0,50,0.00,,,0.16,0.000000,,2013-07-15 04:42:00,
2013-07-14 22:51:00,71.0,51.0,-100.00,SE,134,0.0,5.0,50,0.00,,,0.16,0.000000,,2013-07-15 04:51:00,
2013-07-14 23:11:00,71.0,51.0,-100.00,SE,134,0.0,5.0,50,0.00,,,0.16,0.000000,,2013-07-15 05:11:00,
2013-07-14 23:21:00,71.0,51.0,-100.00,SE,134,0.0,5.0,50,0.00,,,0.16,0.000000,,2013-07-15 05:21:00,
2013-07-14 23:32:00,71.0,51.0,-100.00,SE,134,0.0,5.0,50,0.00,,,0.16,0.000000,,2013-07-15 05:32:00,
2013-07-14 23:43:00,71.0,51.0,-100.00,SE,134,0.0,5.0,50,0.00,,,0.16,0.000000,,2013-07-15 05:43:00,
2013-07-14 23:51:00,70.0,52.0,-100.00,East,100,3.0,5.0,52,0.00,,,0.16,0.000000,,2013-07-15 05:51:00,